Hauptseite
METAR-TAF:

METAR-TAF

Flughäfen :

München, Deutschland

Flughafen München

Breite: 48-21N, Länge: 011-47E, Höhe: 453 m

Beobachtung

Neuester Wetterbericht von vor 33 Minuten, um 08:20 UTC
Wind 1 kt aus Ost/Nordost
Temperatur 2°C
Luftfeuchtigkeit 87%
Luftdruck 1011 hPa
Sichtweite 10 km oder mehr
keine Wolken unter 1500 m und keine Kumulonimbus oder Gewitterwolken

METAR: EDDM 270820Z 06001KT CAVOK 02/M00 Q1011 NOSIG

Zeit: 09:53 (08:53 UTC)

Prognose

Neuester Wetterbericht von vor 3 Stunden und 53 Minuten, um 05:00 UTC
Gültige Prognose vom 27 um 06 UTC bis 28 um 12 UTC
Wind 4 kt aus Süd/Südost
Sichtweite 10 km oder mehr
keine Wolken unter 1500 m und keine Kumulonimbus oder Gewitterwolken
Übergehend zu
vom 27 um 19 UTC bis 27 um 21 UTC
Wind 8 kt aus Südwest
Zeitweise
vom 28 um 03 UTC bis 28 um 12 UTC
Regen

TAF: EDDM 270500Z 2706/2812 15004KT CAVOK BECMG 2719/2721 23008KT TEMPO 2803/2812 RA

Wetterbeobachtungen und Prognosen von mehr als 4000 Flughäfen (METAR und TAF Bericht).

Die verfügbaren Stationen werden durch gelbe und rote Markierungen auf der Karte dargestellt.

Führen Sie die Maus auf sie, um den Namen der Station zu sehen.

Darauf klicken, um die Beobachtung von Wetterbeobachtungen und Prognosen zu sehen.

Um die Karte zu ändern : klicken Sie auf den grünen Tasten mit einem schwarzen Kreuz Zum Vergrößern, auf den grünen Button mit einem Gedankenstrich zu verkleinern, oder auf die grünen Pfeile für benachbarte Karten.


METAR-TAF: